Time;durP1;ratioP1;P1;durP2;ratioP2;P2;SDS_P1;SDS_P2;PMS_P1;PMS_P2;Temp;Humidity;BMP_temperature;BMP_pressure;BME280_temperature;BME280_humidity;BME280_pressure;Samples;Min_cycle;Max_cycle;Signal;HPM_P1;HPM_P2
2023/06/01 00:00:31;;;;;;;;;;;20.40;54.50;;;;;;5074997;28;19926;-69
2023/06/01 00:02:56;;;;;;;;;;;20.40;54.60;;;;;;5075369;28;19920;-69
2023/06/01 00:05:22;;;;;;;;;;;20.40;54.60;;;;;;5093077;28;19920;-69
2023/06/01 00:07:47;;;;;;;;;;;20.40;54.60;;;;;;5093032;28;19920;-69
2023/06/01 00:10:13;;;;;;;;;;;20.40;54.50;;;;;;5075106;28;19924;-69
2023/06/01 00:12:38;;;;;;;;;;;20.40;54.60;;;;;;5093013;28;20324;-69
2023/06/01 00:15:04;;;;;;;;;;;20.30;54.40;;;;;;5075179;28;19931;-69
2023/06/01 00:17:30;;;;;;;;;;;20.30;54.40;;;;;;5108603;28;19920;-69
2023/06/01 00:19:56;;;;;;;;;;;20.30;54.40;;;;;;5092930;28;20014;-69
2023/06/01 00:22:23;;;;;;;;;;;20.30;54.40;;;;;;5074901;28;19959;-70
2023/06/01 00:24:49;;;;;;;;;;;20.30;54.40;;;;;;5074694;28;19920;-69
2023/06/01 00:27:15;;;;;;;;;;;20.30;54.40;;;;;;5074853;28;20014;-69
2023/06/01 00:29:40;;;;;;;;;;;20.30;54.40;;;;;;5092946;28;19965;-69
2023/06/01 00:32:06;;;;;;;;;;;20.30;54.40;;;;;;5092784;28;20453;-70
2023/06/01 00:34:31;;;;;;;;;;;20.30;54.40;;;;;;5074572;28;19924;-69
2023/06/01 00:36:57;;;;;;;;;;;20.30;54.40;;;;;;5092549;28;19967;-69
2023/06/01 00:39:22;;;;;;;;;;;20.30;54.40;;;;;;5074845;28;19985;-69
2023/06/01 00:41:48;;;;;;;;;;;20.30;54.40;;;;;;5092701;28;19920;-69
2023/06/01 00:44:13;;;;;;;;;;;20.30;54.40;;;;;;5074495;28;19924;-69
2023/06/01 00:46:39;;;;;;;;;;;20.20;54.30;;;;;;5074676;28;19973;-69
2023/06/01 00:49:05;;;;;;;;;;;20.30;54.40;;;;;;5092335;28;19965;-69
2023/06/01 00:51:32;;;;;;;;;;;20.20;54.30;;;;;;5092475;28;19926;-69
2023/06/01 00:53:59;;;;;;;;;;;20.20;54.20;;;;;;5074023;28;19947;-70
2023/06/01 00:56:24;;;;;;;;;;;20.20;54.20;;;;;;5074281;28;19920;-69
2023/06/01 00:58:50;;;;;;;;;;;20.20;54.20;;;;;;5092303;28;19928;-69
2023/06/01 01:01:18;;;;;;;;;;;20.20;54.30;;;;;;5074323;28;20327;-69
2023/06/01 01:03:49;;;;;;;;;;;20.20;54.20;;;;;;5074509;28;19924;-69
2023/06/01 01:06:35;;;;;;;;;;;20.20;54.20;;;;;;5074255;28;19969;-69
2023/06/01 01:09:20;;;;;;;;;;;20.20;54.20;;;;;;5074265;28;20384;-69
2023/06/01 01:11:49;;;;;;;;;;;20.20;54.20;;;;;;5092285;28;20327;-69
2023/06/01 01:14:17;;;;;;;;;;;20.20;54.20;;;;;;5074064;28;19924;-69
2023/06/01 01:16:46;;;;;;;;;;;20.20;54.20;;;;;;5074441;28;19927;-69
2023/06/01 01:22:03;;;;;;;;;;;20.10;54.20;;;;;;5110329;27;19912;-68
2023/06/01 01:27:44;;;;;;;;;;;20.10;54.20;;;;;;5110216;27;19912;-68
2023/06/01 01:30:10;;;;;;;;;;;20.10;54.10;;;;;;5108620;28;19974;-68
2023/06/01 01:32:37;;;;;;;;;;;20.10;54.20;;;;;;5109195;28;19924;-69
2023/06/01 01:35:04;;;;;;;;;;;20.10;54.20;;;;;;5108778;28;19920;-69
2023/06/01 01:37:29;;;;;;;;;;;20.10;54.20;;;;;;5109072;28;20336;-68
2023/06/01 01:39:55;;;;;;;;;;;20.10;54.10;;;;;;5108683;28;19974;-68
2023/06/01 01:42:20;;;;;;;;;;;20.10;54.10;;;;;;5108658;28;19920;-68
2023/06/01 01:44:46;;;;;;;;;;;20.10;54.10;;;;;;5108663;28;19923;-68
2023/06/01 01:47:17;;;;;;;;;;;20.10;54.20;;;;;;5108557;28;20287;-69
2023/06/01 01:49:44;;;;;;;;;;;20.10;54.10;;;;;;5108839;28;19920;-68
2023/06/01 01:52:29;;;;;;;;;;;20.10;54.10;;;;;;5109899;28;20003;-70
2023/06/01 01:54:55;;;;;;;;;;;20.10;54.20;;;;;;5108558;28;19927;-68
2023/06/01 01:57:22;;;;;;;;;;;20.00;54.10;;;;;;5108423;28;19932;-68
2023/06/01 01:59:48;;;;;;;;;;;20.00;54.10;;;;;;5109765;28;19920;-68
2023/06/01 02:02:14;;;;;;;;;;;20.00;54.10;;;;;;5108706;28;19919;-68
2023/06/01 02:04:40;;;;;;;;;;;20.00;54.00;;;;;;5108237;28;19920;-68
2023/06/01 02:07:06;;;;;;;;;;;20.00;54.00;;;;;;5109506;28;19928;-68
2023/06/01 02:09:32;;;;;;;;;;;20.00;54.00;;;;;;5108383;28;19920;-68
2023/06/01 02:11:57;;;;;;;;;;;20.00;54.00;;;;;;5109584;28;20545;-68
2023/06/01 02:14:23;;;;;;;;;;;20.00;54.00;;;;;;5108169;28;19920;-68
2023/06/01 02:16:48;;;;;;;;;;;20.00;54.00;;;;;;5108453;28;19920;-68
2023/06/01 02:19:15;;;;;;;;;;;20.00;54.00;;;;;;5108380;28;20376;-69
2023/06/01 02:21:42;;;;;;;;;;;20.00;53.90;;;;;;5108156;28;19920;-68
2023/06/01 02:24:08;;;;;;;;;;;20.00;53.90;;;;;;5109222;28;20336;-68
2023/06/01 02:26:34;;;;;;;;;;;19.90;53.80;;;;;;5122630;28;19963;-68
2023/06/01 02:29:02;;;;;;;;;;;19.90;53.90;;;;;;5145625;27;19923;-68
2023/06/01 02:31:28;;;;;;;;;;;20.00;53.90;;;;;;5129650;28;19920;-68
2023/06/01 02:33:53;;;;;;;;;;;19.90;53.90;;;;;;5145844;27;20418;-68
2023/06/01 02:36:19;;;;;;;;;;;20.00;53.90;;;;;;5111030;28;19920;-68
2023/06/01 02:38:47;;;;;;;;;;;19.90;53.80;;;;;;5115627;28;20275;-70
2023/06/01 02:41:13;;;;;;;;;;;19.90;53.80;;;;;;5131827;27;19989;-68
2023/06/01 02:43:38;;;;;;;;;;;19.90;53.90;;;;;;5097377;28;20389;-68
2023/06/01 02:46:04;;;;;;;;;;;19.90;53.80;;;;;;5097352;28;19966;-68
2023/06/01 02:48:30;;;;;;;;;;;19.90;53.80;;;;;;5097297;28;19920;-68
2023/06/01 02:50:55;;;;;;;;;;;19.90;53.80;;;;;;5097454;28;19920;-69
2023/06/01 02:53:21;;;;;;;;;;;19.90;53.80;;;;;;5097164;28;19920;-68
2023/06/01 02:55:46;;;;;;;;;;;19.90;53.80;;;;;;5131443;27;19963;-68
2023/06/01 02:58:16;;;;;;;;;;;19.90;53.80;;;;;;5097374;28;19926;-68
2023/06/01 03:00:42;;;;;;;;;;;19.90;53.80;;;;;;5115475;28;19927;-68
2023/06/01 03:03:07;;;;;;;;;;;19.90;54.60;;;;;;5115194;28;19926;-68
2023/06/01 03:05:35;;;;;;;;;;;19.90;53.80;;;;;;5131283;27;19925;-68
2023/06/01 03:08:01;;;;;;;;;;;19.80;53.80;;;;;;5097165;28;20347;-68
2023/06/01 03:10:26;;;;;;;;;;;19.90;53.80;;;;;;5096652;28;20010;-68
2023/06/01 03:12:52;;;;;;;;;;;19.80;53.80;;;;;;5097092;28;19924;-68
2023/06/01 03:15:17;;;;;;;;;;;19.90;53.80;;;;;;5096773;28;19919;-68
2023/06/01 03:17:43;;;;;;;;;;;19.80;53.70;;;;;;5096955;28;19972;-68
2023/06/01 03:20:14;;;;;;;;;;;19.80;53.80;;;;;;5096984;28;20395;-68
2023/06/01 03:22:41;;;;;;;;;;;19.80;53.70;;;;;;5096541;28;19963;-69
2023/06/01 03:25:07;;;;;;;;;;;19.80;53.70;;;;;;5096509;28;19923;-68
2023/06/01 03:27:32;;;;;;;;;;;19.80;53.70;;;;;;5096462;28;19926;-68
2023/06/01 03:29:58;;;;;;;;;;;19.80;53.70;;;;;;5096441;28;19920;-68
2023/06/01 03:32:23;;;;;;;;;;;19.80;53.70;;;;;;5096658;28;20020;-70
2023/06/01 03:34:49;;;;;;;;;;;19.80;53.70;;;;;;5096554;28;19920;-68
2023/06/01 03:37:14;;;;;;;;;;;19.80;53.70;;;;;;5096203;28;19919;-68
2023/06/01 03:39:40;;;;;;;;;;;19.80;53.70;;;;;;5096784;28;20295;-68
2023/06/01 03:42:07;;;;;;;;;;;19.80;53.70;;;;;;5114516;28;19967;-68
2023/06/01 03:44:32;;;;;;;;;;;19.70;53.70;;;;;;5096150;28;19927;-69
2023/06/01 03:46:58;;;;;;;;;;;19.80;53.70;;;;;;5096147;28;19924;-68
2023/06/01 03:49:23;;;;;;;;;;;19.70;53.60;;;;;;5094975;28;19920;-68
2023/06/01 03:51:49;;;;;;;;;;;19.70;53.60;;;;;;5114363;28;20049;-68
2023/06/01 03:54:14;;;;;;;;;;;19.80;53.70;;;;;;5096238;28;19920;-68
2023/06/01 03:56:40;;;;;;;;;;;19.70;53.70;;;;;;5114206;28;20390;-68
2023/06/01 03:59:09;;;;;;;;;;;19.70;53.60;;;;;;5114134;28;19926;-68
2023/06/01 04:01:39;;;;;;;;;;;19.70;53.60;;;;;;5095862;28;19919;-68
2023/06/01 04:04:05;;;;;;;;;;;19.70;53.60;;;;;;5096037;28;19999;-70
2023/06/01 04:06:35;;;;;;;;;;;19.70;53.60;;;;;;5095847;28;20295;-68
2023/06/01 04:09:06;;;;;;;;;;;19.70;53.60;;;;;;5114001;28;20370;-68
2023/06/01 04:11:32;;;;;;;;;;;19.70;53.60;;;;;;5095930;28;19923;-68
2023/06/01 04:13:57;;;;;;;;;;;19.60;53.50;;;;;;5113989;28;19920;-68
2023/06/01 04:16:23;;;;;;;;;;;19.70;53.60;;;;;;5113817;28;19945;-68
2023/06/01 04:18:48;;;;;;;;;;;19.60;53.50;;;;;;5113851;28;20259;-68
2023/06/01 04:21:15;;;;;;;;;;;19.60;53.50;;;;;;5113814;28;19923;-68
2023/06/01 04:23:42;;;;;;;;;;;19.60;53.50;;;;;;5095669;28;20334;-68
2023/06/01 04:26:07;;;;;;;;;;;19.60;53.50;;;;;;5095175;28;19924;-69
2023/06/01 04:28:33;;;;;;;;;;;19.60;53.50;;;;;;5113696;28;19927;-68
2023/06/01 04:30:59;;;;;;;;;;;19.60;53.60;;;;;;5095258;28;20343;-68
2023/06/01 04:33:24;;;;;;;;;;;19.60;53.50;;;;;;5113553;28;19924;-68
2023/06/01 04:35:52;;;;;;;;;;;19.60;53.50;;;;;;5129600;27;19920;-70
2023/06/01 04:38:18;;;;;;;;;;;19.60;53.50;;;;;;5095447;28;19969;-69
2023/06/01 04:40:45;;;;;;;;;;;19.60;53.60;;;;;;5129476;27;20341;-69
2023/06/01 04:43:11;;;;;;;;;;;19.60;53.50;;;;;;5095194;28;19932;-68
2023/06/01 04:45:38;;;;;;;;;;;19.60;53.50;;;;;;5095141;28;19981;-68
2023/06/01 04:48:08;;;;;;;;;;;19.60;53.50;;;;;;5113449;28;20287;-68
2023/06/01 04:50:34;;;;;;;;;;;19.60;54.30;;;;;;5095191;28;19920;-68
2023/06/01 04:53:00;;;;;;;;;;;19.50;53.50;;;;;;5129086;27;19920;-68
2023/06/01 04:55:26;;;;;;;;;;;19.50;53.50;;;;;;5095056;28;20390;-68
2023/06/01 04:57:52;;;;;;;;;;;19.50;53.50;;;;;;5095154;28;19946;-68
2023/06/01 05:00:17;;;;;;;;;;;19.50;53.50;;;;;;5112752;28;19926;-68
2023/06/01 05:02:44;;;;;;;;;;;19.60;53.50;;;;;;5095147;28;19926;-68
2023/06/01 05:05:10;;;;;;;;;;;19.50;53.50;;;;;;5112966;28;19927;-68
2023/06/01 05:07:37;;;;;;;;;;;19.50;53.50;;;;;;5095033;28;19920;-68
2023/06/01 05:10:05;;;;;;;;;;;19.50;53.50;;;;;;5094924;28;19920;-68
2023/06/01 05:12:31;;;;;;;;;;;19.50;53.60;;;;;;5094591;28;19926;-68
2023/06/01 05:14:57;;;;;;;;;;;19.50;53.50;;;;;;5094571;28;20293;-68
2023/06/01 05:17:22;;;;;;;;;;;19.50;53.50;;;;;;5094819;28;19920;-69
2023/06/01 05:19:48;;;;;;;;;;;19.50;53.60;;;;;;5112940;28;20456;-68
2023/06/01 05:22:14;;;;;;;;;;;19.50;53.50;;;;;;5112730;28;19919;-68
2023/06/01 05:24:40;;;;;;;;;;;19.50;53.50;;;;;;5112681;28;20294;-68
2023/06/01 05:27:06;;;;;;;;;;;19.50;53.50;;;;;;5094060;28;19923;-68
2023/06/01 05:29:31;;;;;;;;;;;19.50;53.50;;;;;;5094708;28;19955;-68
2023/06/01 05:31:57;;;;;;;;;;;19.50;53.50;;;;;;5093289;28;19974;-67
2023/06/01 05:34:22;;;;;;;;;;;19.50;53.50;;;;;;5092109;28;20283;-67
2023/06/01 05:36:48;;;;;;;;;;;19.50;53.50;;;;;;5091056;28;19993;-68
2023/06/01 05:39:14;;;;;;;;;;;19.50;53.50;;;;;;5091490;28;19925;-69
2023/06/01 05:41:40;;;;;;;;;;;19.50;53.70;;;;;;5111151;28;19920;-69
2023/06/01 05:44:06;;;;;;;;;;;19.50;53.70;;;;;;5093084;28;19920;-69
2023/06/01 05:46:31;;;;;;;;;;;19.50;53.70;;;;;;5092926;28;19924;-69
2023/06/01 05:48:57;;;;;;;;;;;19.60;53.90;;;;;;5091837;28;19920;-66
2023/06/01 05:51:22;;;;;;;;;;;19.60;53.80;;;;;;5091329;28;19967;-66
2023/06/01 05:53:48;;;;;;;;;;;19.60;54.00;;;;;;5109207;28;19919;-68
2023/06/01 05:56:13;;;;;;;;;;;19.60;54.10;;;;;;5091272;28;20130;-67
2023/06/01 05:58:39;;;;;;;;;;;19.70;54.50;;;;;;5089510;28;20333;-76
2023/06/01 06:01:05;;;;;;;;;;;19.70;54.50;;;;;;5089820;28;19926;-72
2023/06/01 06:03:30;;;;;;;;;;;19.70;54.50;;;;;;5083045;28;20467;-71
2023/06/01 06:05:56;;;;;;;;;;;19.70;54.40;;;;;;5076502;28;20315;-67
2023/06/01 06:08:21;;;;;;;;;;;19.80;54.40;;;;;;5108245;28;20264;-67
2023/06/01 06:10:47;;;;;;;;;;;19.80;54.40;;;;;;5117074;27;19934;-66
2023/06/01 06:13:13;;;;;;;;;;;19.80;54.50;;;;;;5092836;28;20362;-64
2023/06/01 06:15:39;;;;;;;;;;;19.80;54.40;;;;;;5105438;27;20022;-67
2023/06/01 06:18:05;;;;;;;;;;;19.80;54.20;;;;;;5109513;27;19947;-63
2023/06/01 06:20:31;;;;;;;;;;;19.80;54.00;;;;;;5098847;28;19935;-66
2023/06/01 06:22:56;;;;;;;;;;;19.90;54.10;;;;;;5102373;27;19927;-63
2023/06/01 06:25:22;;;;;;;;;;;19.90;54.30;;;;;;5078400;28;20280;-64
2023/06/01 06:27:47;;;;;;;;;;;19.90;54.00;;;;;;5091261;27;20018;-67
2023/06/01 06:30:13;;;;;;;;;;;19.90;54.10;;;;;;5094487;28;19924;-66
2023/06/01 06:32:39;;;;;;;;;;;19.90;54.20;;;;;;5094934;28;20023;-69
2023/06/01 06:35:04;;;;;;;;;;;19.90;54.30;;;;;;5090625;28;19985;-71
2023/06/01 06:37:30;;;;;;;;;;;19.90;54.40;;;;;;5072708;28;19977;-67
2023/06/01 06:39:55;;;;;;;;;;;20.00;54.60;;;;;;5095176;28;20391;-66
2023/06/01 06:42:21;;;;;;;;;;;20.00;54.30;;;;;;5075737;28;19923;-66
2023/06/01 06:44:47;;;;;;;;;;;20.00;54.10;;;;;;5081195;28;19928;-67
2023/06/01 06:47:15;;;;;;;;;;;19.90;54.10;;;;;;5097761;28;20022;-67
2023/06/01 06:49:40;;;;;;;;;;;19.90;54.00;;;;;;5077202;28;19955;-68
2023/06/01 06:52:08;;;;;;;;;;;19.90;54.10;;;;;;5077843;28;19928;-66
2023/06/01 06:54:34;;;;;;;;;;;19.90;54.00;;;;;;5080155;28;19919;-66
2023/06/01 06:57:00;;;;;;;;;;;19.90;54.20;;;;;;5112458;27;19920;-66
2023/06/01 06:59:26;;;;;;;;;;;19.90;54.60;;;;;;5079944;28;20312;-67
2023/06/01 07:01:51;;;;;;;;;;;19.90;54.70;;;;;;5077124;28;19926;-68
2023/06/01 07:04:17;;;;;;;;;;;20.00;54.80;;;;;;5113134;27;19924;-69
2023/06/01 07:06:42;;;;;;;;;;;20.00;54.70;;;;;;5098884;28;19932;-67
2023/06/01 07:09:09;;;;;;;;;;;20.00;55.00;;;;;;5076371;28;19938;-69
2023/06/01 07:11:34;;;;;;;;;;;20.00;54.90;;;;;;5075526;28;19924;-69
2023/06/01 07:14:00;;;;;;;;;;;20.00;54.60;;;;;;5109382;27;19924;-68
2023/06/01 07:16:26;;;;;;;;;;;20.00;54.50;;;;;;5094626;28;20450;-69
2023/06/01 07:18:52;;;;;;;;;;;20.00;54.60;;;;;;5075395;28;19930;-69
2023/06/01 07:21:17;;;;;;;;;;;20.00;54.50;;;;;;5078627;28;19920;-69
2023/06/01 07:23:44;;;;;;;;;;;19.90;54.40;;;;;;5090084;28;20302;-69
2023/06/01 07:26:10;;;;;;;;;;;19.90;54.40;;;;;;5080673;28;20396;-69
2023/06/01 07:28:35;;;;;;;;;;;19.90;54.50;;;;;;5078098;28;19924;-69
2023/06/01 07:31:00;;;;;;;;;;;19.90;54.50;;;;;;5078174;28;19931;-69
2023/06/01 07:33:26;;;;;;;;;;;19.90;54.50;;;;;;5076699;27;19927;-68
2023/06/01 07:35:52;;;;;;;;;;;19.80;54.40;;;;;;5094510;27;19920;-69
2023/06/01 07:38:19;;;;;;;;;;;19.80;54.40;;;;;;5094931;28;19934;-69
2023/06/01 07:40:45;;;;;;;;;;;19.80;54.40;;;;;;5076169;28;19919;-69
2023/06/01 07:43:11;;;;;;;;;;;19.80;54.40;;;;;;5083902;28;20260;-68
2023/06/01 07:45:36;;;;;;;;;;;19.80;54.40;;;;;;5085650;28;20854;-68
2023/06/01 07:48:02;;;;;;;;;;;19.70;54.30;;;;;;5094793;28;19974;-69
2023/06/01 07:50:30;;;;;;;;;;;19.70;54.30;;;;;;5076876;28;19939;-68
2023/06/01 07:52:57;;;;;;;;;;;19.70;54.30;;;;;;5093302;28;19950;-68
2023/06/01 07:55:23;;;;;;;;;;;19.70;54.30;;;;;;5078911;28;19926;-69
2023/06/01 07:57:48;;;;;;;;;;;19.70;54.20;;;;;;5094245;28;19924;-69
2023/06/01 08:00:17;;;;;;;;;;;19.70;54.20;;;;;;5071002;28;19920;-69
2023/06/01 08:02:44;;;;;;;;;;;19.60;54.20;;;;;;5077971;28;19926;-70
2023/06/01 08:05:11;;;;;;;;;;;19.60;54.20;;;;;;5081111;28;20294;-68
2023/06/01 08:07:37;;;;;;;;;;;19.60;54.20;;;;;;5077569;28;19928;-69
2023/06/01 08:10:05;;;;;;;;;;;19.60;54.20;;;;;;5109825;27;19920;-69
2023/06/01 08:12:31;;;;;;;;;;;19.80;54.10;;;;;;5076660;28;19935;-68
2023/06/01 08:14:57;;;;;;;;;;;20.00;53.90;;;;;;5094158;28;20018;-68
2023/06/01 08:17:23;;;;;;;;;;;20.20;53.40;;;;;;5092834;28;19959;-68
2023/06/01 08:19:49;;;;;;;;;;;20.40;52.90;;;;;;5080319;28;20573;-68
2023/06/01 08:22:16;;;;;;;;;;;20.60;52.40;;;;;;5079703;28;19965;-68
2023/06/01 08:24:42;;;;;;;;;;;20.80;51.80;;;;;;5077018;28;20291;-68
2023/06/01 08:27:23;;;;;;;;;;;21.00;51.30;;;;;;5093192;28;19939;-69
2023/06/01 08:29:49;;;;;;;;;;;21.30;50.90;;;;;;5082444;28;19931;-70
2023/06/01 08:32:15;;;;;;;;;;;21.60;50.50;;;;;;5083470;28;19923;-72
2023/06/01 08:34:40;;;;;;;;;;;21.80;49.90;;;;;;5092206;27;20317;-71
2023/06/01 08:37:06;;;;;;;;;;;21.90;49.40;;;;;;5071956;28;19963;-70
2023/06/01 08:39:31;;;;;;;;;;;22.10;49.70;;;;;;5081388;28;19920;-71
2023/06/01 08:42:03;;;;;;;;;;;22.20;49.00;;;;;;5109587;27;19931;-70
2023/06/01 08:44:34;;;;;;;;;;;22.20;48.70;;;;;;5071929;28;19923;-70
2023/06/01 08:47:00;;;;;;;;;;;22.20;48.50;;;;;;5076300;28;20269;-72
2023/06/01 08:49:27;;;;;;;;;;;22.20;48.50;;;;;;5071375;28;20040;-73
2023/06/01 08:51:55;;;;;;;;;;;22.20;48.70;;;;;;5067913;28;19928;-71
2023/06/01 08:54:20;;;;;;;;;;;22.10;48.60;;;;;;5073790;28;19924;-72
2023/06/01 08:56:46;;;;;;;;;;;22.10;48.60;;;;;;5070945;28;19985;-72
2023/06/01 08:59:14;;;;;;;;;;;22.00;48.80;;;;;;5088798;28;19977;-71
2023/06/01 09:01:40;;;;;;;;;;;21.90;48.80;;;;;;5093483;27;19939;-71
2023/06/01 09:04:07;;;;;;;;;;;21.90;49.00;;;;;;5077862;28;19924;-71
2023/06/01 09:06:33;;;;;;;;;;;21.80;49.10;;;;;;5092022;28;19950;-71
2023/06/01 09:08:58;;;;;;;;;;;21.70;49.20;;;;;;5107658;27;20457;-72
2023/06/01 09:11:25;;;;;;;;;;;21.60;49.20;;;;;;5074606;28;19920;-72
2023/06/01 09:13:51;;;;;;;;;;;21.60;49.40;;;;;;5090193;28;19931;-71
2023/06/01 09:16:16;;;;;;;;;;;21.50;49.50;;;;;;5069646;28;19927;-71
2023/06/01 09:18:57;;;;;;;;;;;21.50;49.70;;;;;;5071905;28;20360;-73
2023/06/01 09:21:22;;;;;;;;;;;21.40;49.70;;;;;;5073512;28;19927;-73
2023/06/01 09:23:48;;;;;;;;;;;21.30;49.80;;;;;;5092076;28;19981;-70
2023/06/01 09:26:14;;;;;;;;;;;21.20;49.90;;;;;;5094592;28;19931;-73
2023/06/01 09:28:56;;;;;;;;;;;21.30;50.10;;;;;;5067279;28;19928;-70
2023/06/01 09:34:19;;;;;;;;;;;21.20;50.20;;;;;;5089092;27;20375;-73
2023/06/01 09:36:45;;;;;;;;;;;21.20;50.20;;;;;;5084580;28;20009;-72
2023/06/01 09:39:12;;;;;;;;;;;21.20;50.20;;;;;;5070205;28;19963;-71
2023/06/01 09:44:26;;;;;;;;;;;21.30;50.00;;;;;;5085466;27;20743;-71
2023/06/01 09:46:53;;;;;;;;;;;21.30;49.80;;;;;;5119766;27;20027;-71
2023/06/01 09:49:21;;;;;;;;;;;21.30;49.90;;;;;;5088156;28;19998;-71
2023/06/01 09:51:47;;;;;;;;;;;21.40;49.90;;;;;;5086873;28;20050;-71
2023/06/01 09:54:28;;;;;;;;;;;21.40;49.80;;;;;;5089650;28;20386;-71
2023/06/01 09:56:54;;;;;;;;;;;21.40;49.90;;;;;;5086429;28;19920;-70
2023/06/01 09:59:21;;;;;;;;;;;21.40;49.80;;;;;;5083081;28;19920;-70
2023/06/01 10:01:49;;;;;;;;;;;21.40;49.70;;;;;;5086777;28;20022;-72
2023/06/01 10:04:17;;;;;;;;;;;21.40;49.70;;;;;;5082932;28;20145;-69
2023/06/01 10:06:42;;;;;;;;;;;21.40;49.70;;;;;;5117022;27;20452;-72
2023/06/01 10:09:14;;;;;;;;;;;21.50;49.70;;;;;;5113110;27;19928;-72
2023/06/01 10:11:39;;;;;;;;;;;21.50;49.80;;;;;;5111293;27;20370;-72
2023/06/01 10:14:05;;;;;;;;;;;21.50;49.70;;;;;;5083368;28;19931;-72
2023/06/01 10:16:31;;;;;;;;;;;21.40;49.60;;;;;;5089474;28;20346;-72
2023/06/01 10:18:57;;;;;;;;;;;21.40;49.70;;;;;;5092162;28;19933;-73
2023/06/01 10:21:23;;;;;;;;;;;21.40;49.70;;;;;;5088596;28;20000;-72
2023/06/01 10:23:49;;;;;;;;;;;21.40;49.70;;;;;;5081793;28;20011;-72
2023/06/01 10:26:16;;;;;;;;;;;21.40;49.70;;;;;;5083734;28;20504;-72
2023/06/01 10:28:43;;;;;;;;;;;21.30;49.70;;;;;;5117379;27;20019;-72
2023/06/01 10:31:29;;;;;;;;;;;21.30;49.70;;;;;;5086112;28;19924;-67
2023/06/01 10:33:57;;;;;;;;;;;21.30;49.80;;;;;;5080395;28;20401;-68
2023/06/01 10:36:23;;;;;;;;;;;21.40;49.90;;;;;;5084199;28;19931;-69
2023/06/01 10:38:48;;;;;;;;;;;21.40;49.80;;;;;;5083952;28;19924;-69
2023/06/01 10:41:30;;;;;;;;;;;21.40;49.90;;;;;;5084956;28;19920;-69
2023/06/01 10:43:56;;;;;;;;;;;21.40;50.00;;;;;;5085504;28;19936;-68
2023/06/01 10:46:37;;;;;;;;;;;21.40;50.00;;;;;;5079806;28;19928;-71
2023/06/01 10:49:03;;;;;;;;;;;21.40;50.30;;;;;;5082375;28;19916;-70
2023/06/01 10:51:29;;;;;;;;;;;21.50;50.50;;;;;;5086259;28;19924;-70
2023/06/01 10:54:14;;;;;;;;;;;21.50;50.60;;;;;;5080867;28;19920;-71
2023/06/01 10:56:40;;;;;;;;;;;21.50;50.60;;;;;;5068735;28;19928;-73
2023/06/01 11:01:47;;;;;;;;;;;21.60;51.00;;;;;;5091129;27;19917;-71
2023/06/01 11:04:12;;;;;;;;;;;21.60;51.10;;;;;;5092150;28;20199;-72
2023/06/01 11:06:39;;;;;;;;;;;21.60;51.20;;;;;;5086950;28;19929;-68
2023/06/01 11:09:06;;;;;;;;;;;21.70;51.30;;;;;;5088187;28;19997;-71
2023/06/01 11:11:51;;;;;;;;;;;21.70;51.40;;;;;;5118061;27;19963;-74
2023/06/01 11:14:18;;;;;;;;;;;21.70;51.50;;;;;;5094752;28;19979;-71
2023/06/01 11:16:44;;;;;;;;;;;21.70;51.50;;;;;;5085255;28;19946;-70
2023/06/01 11:19:10;;;;;;;;;;;21.70;51.60;;;;;;5081943;28;19935;-73
2023/06/01 11:21:40;;;;;;;;;;;21.70;51.70;;;;;;5115693;27;20062;-71
2023/06/01 11:24:07;;;;;;;;;;;21.60;51.70;;;;;;5090959;28;19928;-70
2023/06/01 11:26:35;;;;;;;;;;;21.70;51.80;;;;;;5086096;28;20287;-72
2023/06/01 11:29:03;;;;;;;;;;;21.70;51.80;;;;;;5117122;27;20012;-72
2023/06/01 11:31:33;;;;;;;;;;;21.60;51.70;;;;;;5090942;28;19931;-71
2023/06/01 11:33:59;;;;;;;;;;;21.60;51.70;;;;;;5086059;28;19929;-72
2023/06/01 11:36:25;;;;;;;;;;;21.50;51.60;;;;;;5085590;28;20401;-73
2023/06/01 11:38:52;;;;;;;;;;;21.40;52.40;;;;;;5088690;28;19925;-76
2023/06/01 11:41:19;;;;;;;;;;;21.40;51.80;;;;;;5084185;28;20057;-73
2023/06/01 11:43:44;;;;;;;;;;;21.30;51.90;;;;;;5086303;28;19932;-73
2023/06/01 11:46:10;;;;;;;;;;;21.30;51.90;;;;;;5088008;28;19924;-71
2023/06/01 11:48:35;;;;;;;;;;;21.20;51.90;;;;;;5087808;28;19924;-75
2023/06/01 11:51:01;;;;;;;;;;;21.20;52.00;;;;;;5081743;28;20769;-74
2023/06/01 11:53:27;;;;;;;;;;;21.10;52.00;;;;;;5083280;28;19928;-74
2023/06/01 11:55:53;;;;;;;;;;;21.10;52.00;;;;;;5089353;28;19924;-73
2023/06/01 11:58:27;;;;;;;;;;;21.10;52.00;;;;;;5090398;28;20199;-74
2023/06/01 12:00:53;;;;;;;;;;;21.10;51.90;;;;;;5086993;28;20388;-75
2023/06/01 12:03:19;;;;;;;;;;;21.10;51.80;;;;;;5077491;28;20005;-73
2023/06/01 12:05:46;;;;;;;;;;;21.10;51.80;;;;;;5077212;28;20921;-71
2023/06/01 12:08:13;;;;;;;;;;;21.10;51.70;;;;;;5083171;28;19924;-72
2023/06/01 12:10:39;;;;;;;;;;;21.10;51.60;;;;;;5083989;28;20698;-73
2023/06/01 12:13:04;;;;;;;;;;;21.10;51.50;;;;;;5070820;28;19924;-74
2023/06/01 12:15:30;;;;;;;;;;;21.10;51.50;;;;;;5059997;28;20020;-74
2023/06/01 12:17:56;;;;;;;;;;;21.10;51.50;;;;;;5075004;28;19981;-69
2023/06/01 12:25:52;;;;;;;;;;;21.30;52.20;;;;;;5073148;27;19925;-69
2023/06/01 12:28:18;;;;;;;;;;;21.40;52.30;;;;;;5067436;28;19928;-70
2023/06/01 12:30:44;;;;;;;;;;;21.50;52.20;;;;;;5068608;28;19932;-69
2023/06/01 12:33:29;;;;;;;;;;;21.50;52.10;;;;;;5070650;28;20399;-69
2023/06/01 12:35:54;;;;;;;;;;;21.60;52.00;;;;;;5066800;28;19924;-69
2023/06/01 12:38:20;;;;;;;;;;;21.60;52.00;;;;;;5056491;28;20402;-68
2023/06/01 12:40:46;;;;;;;;;;;21.70;51.90;;;;;;5072229;28;19928;-69
2023/06/01 12:43:19;;;;;;;;;;;21.70;51.90;;;;;;5071342;28;19929;-72
2023/06/01 12:45:45;;;;;;;;;;;21.70;51.90;;;;;;5068777;28;19928;-70
2023/06/01 12:48:29;;;;;;;;;;;21.70;51.70;;;;;;5072610;28;19978;-73
2023/06/01 12:50:54;;;;;;;;;;;21.60;51.70;;;;;;5070937;28;19928;-70
2023/06/01 12:53:20;;;;;;;;;;;21.50;51.70;;;;;;5070167;28;20724;-69
2023/06/01 12:55:46;;;;;;;;;;;21.40;51.80;;;;;;5063193;28;19935;-68
2023/06/01 12:58:11;;;;;;;;;;;21.40;52.00;;;;;;5075331;28;19928;-68
2023/06/01 13:00:37;;;;;;;;;;;21.30;52.00;;;;;;5074338;28;20567;-68
2023/06/01 13:03:03;;;;;;;;;;;21.20;52.10;;;;;;5073948;28;19920;-68
2023/06/01 13:05:28;;;;;;;;;;;21.20;52.20;;;;;;5077952;28;20508;-68
2023/06/01 13:07:54;;;;;;;;;;;21.10;52.10;;;;;;5071700;28;19928;-69
2023/06/01 13:10:19;;;;;;;;;;;21.10;52.20;;;;;;5077554;28;20778;-68
2023/06/01 13:12:45;;;;;;;;;;;21.10;52.20;;;;;;5076940;28;20391;-68
2023/06/01 13:15:12;;;;;;;;;;;21.10;52.20;;;;;;5077662;28;19928;-68
2023/06/01 13:17:37;;;;;;;;;;;21.10;52.20;;;;;;5079171;28;20622;-68
2023/06/01 13:20:06;;;;;;;;;;;21.00;52.90;;;;;;5079073;28;19921;-68
2023/06/01 13:22:31;;;;;;;;;;;21.00;52.10;;;;;;5105760;28;19935;-68
2023/06/01 13:24:57;;;;;;;;;;;21.00;52.10;;;;;;5079855;28;19932;-68
2023/06/01 13:27:23;;;;;;;;;;;21.00;52.00;;;;;;5074309;28;20626;-68
2023/06/01 13:29:49;;;;;;;;;;;21.00;52.00;;;;;;5080039;28;19970;-68
2023/06/01 13:32:14;;;;;;;;;;;21.00;51.90;;;;;;5083005;28;19946;-68
2023/06/01 13:34:40;;;;;;;;;;;21.10;52.00;;;;;;5080137;28;19929;-68
2023/06/01 13:37:06;;;;;;;;;;;21.10;51.70;;;;;;5067108;28;19929;-67
2023/06/01 13:39:32;;;;;;;;;;;21.20;51.60;;;;;;5064441;28;19924;-67
2023/06/01 13:41:58;;;;;;;;;;;21.20;51.50;;;;;;5067144;28;19924;-67
2023/06/01 13:44:23;;;;;;;;;;;21.20;51.00;;;;;;5065445;28;19964;-67
2023/06/01 13:46:49;;;;;;;;;;;21.30;50.70;;;;;;5064615;28;19920;-67
2023/06/01 13:49:15;;;;;;;;;;;21.30;50.50;;;;;;5065134;28;19952;-68
2023/06/01 13:51:40;;;;;;;;;;;21.30;50.30;;;;;;5066637;28;20013;-64
2023/06/01 13:54:06;;;;;;;;;;;21.40;50.30;;;;;;5064061;28;22094;-67
2023/06/01 13:56:32;;;;;;;;;;;21.40;50.30;;;;;;5065596;28;19932;-67
2023/06/01 13:58:57;;;;;;;;;;;21.40;50.30;;;;;;5065225;28;19970;-67
2023/06/01 14:01:23;;;;;;;;;;;21.40;50.40;;;;;;5066577;28;19920;-67
2023/06/01 14:03:48;;;;;;;;;;;21.40;50.50;;;;;;5065180;28;19929;-66
2023/06/01 14:06:14;;;;;;;;;;;21.40;50.60;;;;;;5065634;28;19974;-69
2023/06/01 14:08:39;;;;;;;;;;;21.40;50.70;;;;;;5064729;28;19952;-66
2023/06/01 14:11:05;;;;;;;;;;;21.40;50.70;;;;;;5067262;28;19920;-66
2023/06/01 14:13:30;;;;;;;;;;;21.50;50.90;;;;;;5068121;28;19921;-67
2023/06/01 14:15:56;;;;;;;;;;;21.40;50.90;;;;;;5065351;28;20399;-68
2023/06/01 14:18:21;;;;;;;;;;;21.40;51.00;;;;;;5070898;28;19932;-67
2023/06/01 14:20:47;;;;;;;;;;;21.40;51.10;;;;;;5066862;28;19920;-67
2023/06/01 14:23:13;;;;;;;;;;;21.50;51.30;;;;;;5067786;28;19920;-67
2023/06/01 14:25:39;;;;;;;;;;;21.40;51.40;;;;;;5064517;28;19928;-66
2023/06/01 14:28:05;;;;;;;;;;;21.40;51.40;;;;;;5064326;28;19920;-66
2023/06/01 14:30:31;;;;;;;;;;;21.40;51.60;;;;;;5067766;28;19986;-68
2023/06/01 14:32:56;;;;;;;;;;;21.40;51.60;;;;;;5067300;28;19927;-68